Latest Weather Observations for Kowen Forest

IDN60801

Issued at 1:03 am EDT Monday 26 October 2020 (issued every 10 minutes, with the page automatically refreshed every 10 minutes)

About weather observations | Map of weather stations | Latest weather observations for NSW | Other Formats
Station Details ID: 250071 Name: KOWEN FOREST (PCS) Lat: -35.31 Lon: 149.32 Height: 720.0 m

Portable automatic weather stations (PAWS) are operated by other organisations, such as Fire and Emergency Services, and are included here by agreement. Portable stations may be deployed to a location for a short period and their location may be subject to change without notice. Wind observations from these stations are provided from heights of either three (3) or ten (10) metres above ground level (AGL).

Data from the previous 72 hours. | See also: Recent months for locations in New South Wales
Date/Time
EDT
Temp
°C
App
Temp
°C
Dew
Point
°C
Rel
Hum
%
Delta-T
°C
Wind Press
QNH
hPa
Press
MSL
hPa
Rain since
9am
mm
Dir  Spd
km/h
Gust
km/h
Spd
kts
Gust
kts
26/12:40am 8.5 4.6 5.4 81 1.5 ESE 15 20 8 11 - - 5.0
26/12:30am 8.3 4.8 5.6 83 1.3 ESE 13 17 7 9 - - 5.0
26/12:20am 8.2 4.8 5.7 84 1.2 ESE 13 19 7 10 - - 5.0
26/12:10am 8.3 4.4 5.4 82 1.4 ESE 15 19 8 10 - - 5.0
26/12:00am 8.3 4.4 5.2 81 1.4 ESE 15 19 8 10 - - 4.8
 
Date/Time
EDT
Temp
°C
App
Temp
°C
Dew
Point
°C
Rel
Hum
%
Delta-T
°C
Wind Press
QNH
hPa
Press
MSL
hPa
Rain since
9am
mm
Dir  Spd
km/h
Gust
km/h
Spd
kts
Gust
kts
25/11:50pm 8.3 4.4 5.3 81 1.4 ESE 15 19 8 10 - - 4.8
25/11:40pm 8.3 4.8 5.6 83 1.3 ESE 13 17 7 9 - - 4.8
25/11:30pm 8.3 5.4 6.3 87 1.0 ESE 11 13 6 7 - - 4.8
25/11:20pm 8.4 4.6 6.0 85 1.1 SE 15 22 8 12 - - 4.6
25/11:10pm 8.5 4.7 5.9 84 1.2 ESE 15 20 8 11 - - 4.6
25/11:00pm 8.5 5.1 5.8 83 1.3 ESE 13 15 7 8 - - 4.2
25/10:50pm 8.6 5.5 5.7 82 1.4 ESE 11 17 6 9 - - 4.0
25/10:40pm 8.8 5.1 6.1 83 1.3 ESE 15 19 8 10 - - 4.0
25/10:30pm 9.0 5.7 6.4 84 1.3 ESE 13 19 7 10 - - 3.8
25/10:20pm 9.0 6.3 7.2 88 0.9 ESE 11 17 6 9 - - 3.8
25/10:10pm 9.1 5.5 6.7 85 1.2 ESE 15 28 8 15 - - 3.6
25/10:00pm 9.0 6.3 7.2 88 0.9 SE 11 17 6 9 - - 3.6
25/09:50pm 8.8 6.8 7.3 90 0.7 SE 7 9 4 5 - - 3.6
25/09:40pm 8.6 6.8 7.3 91 0.6 SE 6 11 3 6 - - 3.4
25/09:30pm 8.6 6.9 7.4 92 0.6 SE 6 7 3 4 - - 3.2
25/09:20pm 8.6 6.3 7.4 92 0.6 SSE 9 13 5 7 - - 3.0
25/09:10pm 8.6 5.9 7.3 91 0.6 SE 11 15 6 8 - - 3.0
25/09:00pm 8.6 5.5 7.1 90 0.7 SE 13 19 7 10 - - 2.8
25/08:50pm 8.7 5.6 7.2 90 0.7 SSE 13 17 7 9 - - 2.4
25/08:40pm 8.8 6.0 7.1 89 0.8 SE 11 13 6 7 - - 2.2
25/08:30pm 8.8 5.7 7.3 90 0.7 SE 13 17 7 9 - - 1.8
25/08:20pm 8.9 5.8 7.1 88 0.9 SE 13 17 7 9 - - 1.6
25/08:10pm 8.8 6.1 7.3 90 0.7 SE 11 13 6 7 - - 1.4
25/08:00pm 8.9 7.0 7.4 90 0.7 ESE 7 11 4 6 - - 1.2
25/07:50pm 8.9 6.6 7.4 90 0.7 SE 9 11 5 6 - - 1.0
25/07:40pm 8.9 6.6 7.3 90 0.8 SE 9 13 5 7 - - 0.6
25/07:30pm 9.0 6.3 7.3 89 0.8 SE 11 13 6 7 - - 0.4
25/07:20pm 9.2 6.4 7.1 87 1.0 SE 11 15 6 8 - - 0.2
25/07:10pm 9.4 6.6 6.9 84 1.2 SSE 11 17 6 9 - - 0.2
25/07:00pm 9.6 6.4 6.8 83 1.4 SE 13 17 7 9 - - 0.0
25/06:50pm 9.6 6.4 6.7 82 1.4 SE 13 17 7 9 - - 0.0
25/06:40pm 9.6 6.0 6.7 82 1.4 SE 15 20 8 11 - - 0.0
25/06:30pm 9.7 6.1 6.7 81 1.5 SE 15 19 8 10 - - 0.0
25/06:20pm 9.8 6.6 7.0 83 1.4 SE 13 17 7 9 - - 0.0
25/06:10pm 9.8 6.7 7.1 83 1.3 SE 13 15 7 8 - - 0.0
25/06:00pm 10.0 6.8 7.0 81 1.5 SSE 13 17 7 9 - - 0.0
25/05:50pm 10.0 6.9 7.1 82 1.4 SE 13 19 7 10 - - 0.0
25/05:40pm 10.1 6.6 7.1 81 1.5 SSE 15 19 8 10 - - 0.0
25/05:30pm 10.1 6.6 7.4 83 1.3 SE 15 19 8 10 - - 0.0
25/05:20pm 10.4 6.8 6.9 79 1.7 SE 15 19 8 10 - - 0.0
25/05:10pm 10.5 6.9 6.9 78 1.8 SE 15 19 8 10 - - 0.0
25/05:00pm 10.5 6.9 6.9 78 1.8 SE 15 20 8 11 - - 0.0
25/04:50pm 10.6 6.6 6.8 77 1.9 SE 17 20 9 11 - - 0.0
25/04:40pm 10.5 6.9 6.9 78 1.8 SE 15 17 8 9 - - 0.0
25/04:30pm 10.4 6.9 7.0 79 1.7 SE 15 17 8 9 - - 0.0
25/04:20pm 10.5 7.4 7.2 80 1.6 SE 13 17 7 9 - - 0.0
25/04:10pm 10.6 7.2 7.5 81 1.5 SE 15 22 8 12 - - 0.0
25/04:00pm 10.5 6.3 7.5 82 1.5 SE 19 22 10 12 - - 0.0
25/03:50pm 10.7 6.9 7.4 80 1.6 SE 17 22 9 12 - - 0.0
25/03:40pm 10.6 6.4 7.3 80 1.6 SE 19 22 10 12 - - 0.0
25/03:30pm 11.0 6.7 6.8 75 2.1 SE 19 22 10 12 - - 0.0
25/03:20pm 11.2 7.3 6.9 75 2.1 SE 17 20 9 11 - - 0.0
25/03:10pm 11.4 7.7 6.4 71 2.5 SE 15 22 8 12 - - 0.0
25/03:00pm 11.4 7.4 6.5 72 2.4 SE 17 22 9 12 - - 0.0
25/02:50pm 11.5 7.2 6.8 73 2.3 SE 19 26 10 14 - - 0.0
25/02:40pm 11.6 7.2 6.4 70 2.6 SE 19 26 10 14 - - 0.0
25/02:30pm 11.9 7.4 6.8 71 2.5 SE 20 24 11 13 - - 0.0
25/02:20pm 12.2 9.4 6.8 69 2.7 SSE 11 17 6 9 - - 0.0
25/02:10pm 11.7 7.7 6.8 72 2.4 SSE 17 20 9 11 - - 0.0
25/02:00pm 11.8 7.6 7.5 75 2.2 SE 19 26 10 14 - - 0.0
25/01:50pm 11.5 7.1 7.3 75 2.1 SSE 20 24 11 13 - - 0.0
25/01:40pm 11.3 7.2 6.4 72 2.4 SSE 17 24 9 13 - - 0.0
25/01:30pm 11.0 7.5 7.1 77 1.9 SE 15 19 8 10 - - 0.0
25/01:20pm 10.2 6.3 7.1 81 1.5 SSE 17 20 9 11 - - 0.0
25/01:10pm 10.0 6.3 6.3 78 1.8 SSE 15 19 8 10 - - 0.0
25/01:00pm 9.7 6.0 6.4 80 1.6 SSE 15 19 8 10 - - 0.0
25/12:50pm 9.5 5.4 6.3 80 1.5 S 17 20 9 11 - - 0.0
25/12:40pm 9.3 5.5 6.0 80 1.6 SSE 15 19 8 10 - - 0.0
25/12:30pm 9.1 5.4 6.1 81 1.4 S 15 22 8 12 - - 0.0
25/12:20pm 8.7 4.5 5.7 81 1.4 S 17 20 9 11 - - 0.0
25/12:10pm 8.5 4.7 5.8 83 1.3 SSE 15 19 8 10 - - 0.0
25/12:00pm 8.4 5.0 5.7 83 1.3 S 13 17 7 9 - - 0.0
25/11:50am 8.3 4.5 5.6 83 1.3 S 15 17 8 9 - - 0.0
25/11:40am 8.1 3.7 5.0 81 1.4 S 17 19 9 10 - - 0.0
25/11:30am 8.2 4.2 4.7 78 1.6 SSE 15 17 8 9 - - 0.0
25/11:20am 8.0 4.0 4.8 80 1.5 S 15 19 8 10 - - 0.0
25/11:10am 8.1 4.5 5.0 81 1.4 SSE 13 22 7 12 - - 0.0
25/11:00am 8.2 4.2 5.0 80 1.5 SSE 15 19 8 10 - - 0.0
25/10:50am 8.3 4.3 4.8 78 1.6 SSE 15 17 8 9 - - 0.0
25/10:40am 8.2 4.2 5.0 80 1.5 S 15 17 8 9 - - 0.0
25/10:30am 8.0 3.6 4.9 81 1.4 S 17 20 9 11 - - 0.0
25/10:20am 7.9 3.1 4.5 79 1.6 S 19 20 10 11 - - 0.0
25/10:10am 7.7 4.0 4.6 81 1.4 SSE 13 19 7 10 - - 0.0
25/10:00am 7.2 3.6 5.0 86 1.0 S 13 19 7 10 - - 11.0
25/09:50am 7.1 3.0 4.6 84 1.1 SSE 15 19 8 10 - - 11.0
25/09:40am 7.0 3.3 4.4 83 1.2 SSE 13 17 7 9 - - 11.0
25/09:30am 6.9 3.5 4.1 82 1.3 SSE 11 15 6 8 - - 11.0
25/09:20am 6.6 2.8 3.8 82 1.2 SSE 13 19 7 10 - - 11.0
25/09:10am 6.4 3.3 3.6 82 1.2 SSE 9 13 5 7 - - 11.0
25/09:00am 6.1 1.0 3.2 82 1.3 SSE 19 22 10 12 - - 11.0
25/08:50am 6.0 1.3 3.3 83 1.2 SSE 17 20 9 11 - - 11.0
25/08:40am 6.0 1.7 3.4 83 1.1 SSE 15 19 8 10 - - 11.0
25/08:30am 5.8 1.9 3.6 86 1.0 SSE 13 17 7 9 - - 11.0
25/08:20am 5.6 0.9 3.3 85 1.0 SSE 17 22 9 12 - - 11.0
25/08:10am 5.7 1.4 3.4 85 1.0 SSE 15 20 8 11 - - 11.0
25/08:00am 5.7 0.5 3.4 85 1.0 SSE 20 22 11 12 - - 10.8
25/07:50am 5.9 0.9 3.4 84 1.1 S 19 22 10 12 - - 10.8
25/07:40am 5.9 1.3 3.7 86 1.0 S 17 22 9 12 - - 10.8
25/07:30am 6.0 1.4 3.7 85 1.0 S 17 20 9 11 - - 10.8
25/07:20am 6.2 2.0 4.0 86 1.0 S 15 19 8 10 - - 10.8
25/07:10am 6.3 1.8 4.2 86 0.9 SSE 17 20 9 11 - - 10.8
25/07:00am 6.5 2.1 4.6 88 0.9 SSE 17 17 9 9 - - 10.8
25/06:50am 6.7 3.1 4.8 88 0.9 SSE 13 19 7 10 - - 10.8
25/06:40am 6.8 3.6 5.0 88 0.8 SSE 11 15 6 8 - - 10.8
25/06:30am 6.9 4.1 5.1 88 0.8 SSE 9 13 5 7 - - 10.8
25/06:20am 7.0 3.8 5.3 89 0.8 SSE 11 13 6 7 - - 10.8
25/06:10am 7.1 3.6 5.3 88 0.8 SSE 13 19 7 10 - - 10.8
25/06:00am 7.2 4.1 5.6 89 0.7 SSE 11 13 6 7 - - 10.8
25/05:50am 7.3 4.7 5.9 91 0.7 SSE 9 11 5 6 - - 10.8
25/05:40am 7.4 4.4 5.8 90 0.8 SSE 11 13 6 7 - - 10.6
25/05:30am 7.5 4.9 6.1 91 0.7 SSE 9 9 5 5 - - 10.6
25/05:20am 7.5 5.3 6.1 91 0.7 SSE 7 9 4 5 - - 10.4
25/05:10am 7.6 5.4 6.2 91 0.7 SSE 7 9 4 5 - - 10.4
25/05:00am 7.7 5.5 6.3 91 0.7 SSE 7 11 4 6 - - 10.2
25/04:50am 7.7 5.7 6.4 91 0.6 S 6 7 3 4 - - 10.2
25/04:40am 7.8 6.3 6.7 93 0.5 ESE 4 7 2 4 - - 10.2
25/04:30am 7.8 6.3 6.9 94 0.4 S 4 4 2 2 - - 10.2
25/04:20am 7.8 5.9 6.7 93 0.5 S 6 6 3 3 - - 10.0
25/04:10am 7.9 6.0 6.7 92 0.6 S 6 7 3 4 - - 10.0
25/04:00am 7.9 6.4 6.8 93 0.5 S 4 6 2 3 - - 10.0
25/03:50am 7.9 6.4 6.6 91 0.6 SSE 4 6 2 3 - - 9.8
25/03:40am 8.0 5.9 6.6 91 0.7 SSE 7 9 4 5 - - 9.8
25/03:30am 8.0 5.5 6.5 90 0.7 SSE 9 11 5 6 - - 9.8
25/03:20am 8.1 5.6 6.5 90 0.8 SSE 9 11 5 6 - - 9.8
25/03:10am 8.2 5.3 6.3 88 0.9 SSE 11 13 6 7 - - 9.8
25/03:00am 8.2 5.7 6.6 90 0.8 SSE 9 11 5 6 - - 9.8
25/02:50am 8.2 5.7 6.4 88 0.9 SSE 9 11 5 6 - - 9.8
25/02:40am 8.3 5.8 6.4 88 0.9 SSE 9 11 5 6 - - 9.8
25/02:30am 8.4 5.9 6.5 88 0.9 SSE 9 11 5 6 - - 9.8
25/02:20am 8.4 6.3 6.7 89 0.8 SSE 7 9 4 5 - - 9.8
25/02:10am 8.4 6.4 7.0 91 0.7 SSE 7 9 4 5 - - 9.8
25/02:00am 8.4 6.4 7.1 91 0.6 SSE 7 9 4 5 - - 9.8
25/01:50am 8.5 6.7 7.3 92 0.6 SE 6 7 3 4 - - 9.8
25/01:40am 8.5 6.7 7.2 91 0.6 ESE 6 9 3 5 - - 9.6
25/01:30am 8.7 7.3 7.2 90 0.7 SSE 4 7 2 4 - - 9.6
25/01:20am 8.8 7.5 7.6 92 0.6 SSE 4 4 2 2 - - 9.6
25/01:10am 8.8 7.1 7.5 91 0.6 SSE 6 9 3 5 - - 9.2
25/01:00am 8.8 6.8 7.3 90 0.7 SSE 7 9 4 5 - - 9.2
25/12:50am 8.8 6.9 7.5 91 0.6 SE 7 7 4 4 - - 9.2
25/12:40am 8.8 6.9 7.7 93 0.5 SSE 7 9 4 5 - - 9.2
25/12:30am 8.9 7.0 7.5 91 0.7 SE 7 9 4 5 - - 9.0
25/12:20am 9.0 6.7 7.6 91 0.7 SSE 9 13 5 7 - - 9.0
25/12:10am 9.1 6.9 7.8 92 0.6 SE 9 13 5 7 - - 9.0
25/12:00am 9.1 7.3 7.9 92 0.6 ESE 7 11 4 6 - - 9.0
 
Date/Time
EDT
Temp
°C
App
Temp
°C
Dew
Point
°C
Rel
Hum
%
Delta-T
°C
Wind Press
QNH
hPa
Press
MSL
hPa
Rain since
9am
mm
Dir  Spd
km/h
Gust
km/h
Spd
kts
Gust
kts
24/11:50pm 9.1 6.9 8.0 93 0.5 ESE 9 15 5 8 - - 9.0
24/11:40pm 9.2 7.1 8.1 93 0.6 ESE 9 11 5 6 - - 8.8
24/11:30pm 9.4 7.3 8.3 93 0.6 ESE 9 11 5 6 - - 8.8
24/11:20pm 9.7 7.7 8.6 93 0.6 ESE 9 11 5 6 - - 8.2
24/11:10pm 10.1 7.7 8.8 92 0.7 ESE 11 15 6 8 - - 7.6
24/11:00pm 10.6 9.4 9.4 92 0.6 SE 6 9 3 5 - - 6.6
24/10:50pm 10.7 9.9 9.5 92 0.6 S 4 7 2 4 - - 5.8
24/10:40pm 10.9 8.8 9.7 92 0.6 S 11 15 6 8 - - 5.6
24/10:30pm 11.6 10.5 9.9 89 0.9 S 6 9 3 5 - - 5.4
24/10:20pm 11.7 9.6 9.9 89 1.0 S 11 15 6 8 - - 5.2
24/10:10pm 11.7 10.4 10.1 90 0.9 SSW 7 9 4 5 - - 5.2
24/10:00pm 11.7 10.0 10.0 89 0.9 SW 9 13 5 7 - - 5.2
24/09:50pm 12.1 8.4 10.2 88 1.0 SSW 20 28 11 15 - - 5.2
24/09:40pm 13.6 9.8 11.0 84 1.4 WSW 22 33 12 18 - - 5.2
24/09:30pm 14.5 13.1 13.5 94 0.6 WNW 13 15 7 8 - - 5.2
24/09:20pm 14.6 13.7 13.6 94 0.6 WNW 11 15 6 8 - - 5.2
24/09:10pm 14.5 13.9 13.6 94 0.5 WSW 9 11 5 6 - - 5.2
24/09:00pm 14.5 13.9 13.4 93 0.6 SW 9 11 5 6 - - 5.2
24/08:50pm 14.5 14.2 13.4 93 0.6 SSW 7 11 4 6 - - 5.2
24/08:40pm 14.6 14.0 13.4 92 0.7 N 9 9 5 5 - - 5.2
24/08:30pm 14.7 13.8 13.7 94 0.6 NNE 11 13 6 7 - - 5.2
24/08:20pm 14.8 13.5 13.8 94 0.6 NNE 13 17 7 9 - - 5.0
24/08:10pm 14.9 12.2 13.6 92 0.8 NNE 20 22 11 12 - - 5.0
24/08:00pm 15.4 13.4 14.0 91 0.8 NNE 17 20 9 11 - - 5.0
24/07:50pm 15.6 13.9 14.6 94 0.6 NNE 17 20 9 11 - - 4.8
24/07:40pm 15.6 15.0 14.7 94 0.5 N 11 15 6 8 - - 4.2
24/07:30pm 15.6 15.8 14.7 94 0.5 NNW 7 9 4 5 - - 3.8
24/07:20pm 15.6 15.4 14.7 94 0.5 N 9 11 5 6 - - 3.4
24/07:10pm 15.7 15.9 14.7 94 0.6 N 7 9 4 5 - - 2.8
24/07:00pm 15.9 16.2 14.6 92 0.8 N 6 6 3 3 - - 2.2
24/06:50pm 16.1 16.4 14.6 91 0.9 NNE 6 6 3 3 - - 2.0
24/06:40pm 16.3 17.0 14.5 89 1.1 NNE 4 6 2 3 - - 2.0
24/06:30pm 16.4 17.2 14.7 90 1.0 NNW 4 6 2 3 - - 2.0
24/06:20pm 16.5 16.8 14.6 88 1.1 NW 6 7 3 4 - - 2.0
24/06:10pm 16.6 16.8 14.6 88 1.2 NW 7 11 4 6 - - 2.0
24/06:00pm 16.8 16.6 14.7 87 1.3 NNW 9 11 5 6 - - 2.0
24/05:50pm 17.0 16.8 14.8 87 1.3 NW 9 11 5 6 - - 2.0
24/05:40pm 17.2 16.7 14.9 86 1.4 NNW 11 15 6 8 - - 2.0
24/05:30pm 17.1 16.6 15.0 87 1.3 NNW 11 15 6 8 - - 2.0
24/05:20pm 17.1 16.3 15.1 88 1.2 NNW 13 17 7 9 - - 2.0
24/05:10pm 17.1 16.0 15.2 88 1.1 NNW 15 19 8 10 - - 2.0
24/05:00pm 17.2 16.8 15.2 88 1.2 NNW 11 15 6 8 - - 2.0
24/04:50pm 17.1 16.6 15.0 87 1.3 N 11 13 6 7 - - 2.0
24/04:40pm 17.2 17.1 14.9 86 1.4 N 9 13 5 7 - - 2.0
24/04:30pm 17.1 17.1 15.1 88 1.2 NNW 9 9 5 5 - - 2.0
24/04:20pm 17.0 17.0 15.2 89 1.1 NNW 9 11 5 6 - - 2.0
24/04:10pm 17.1 17.7 15.4 90 1.0 NNW 6 9 3 5 - - 2.0
24/04:00pm 17.2 17.2 15.2 88 1.2 NW 9 13 5 7 - - 2.0
24/03:50pm 17.5 17.4 14.9 85 1.6 NW 9 13 5 7 - - 2.0
24/03:40pm 17.8 15.7 14.6 81 1.9 WNW 19 20 10 11 - - 1.8
24/03:30pm 18.2 15.5 14.5 79 2.2 WNW 22 26 12 14 - - 1.8
24/03:20pm 18.6 15.9 14.5 77 2.5 WNW 22 24 12 13 - - 1.8
24/03:10pm 18.9 16.0 14.1 73 2.9 WNW 22 26 12 14 - - 1.8
24/03:00pm 19.0 16.7 14.6 75 2.6 WNW 20 24 11 13 - - 1.8
24/02:50pm 19.0 16.6 14.5 75 2.7 WNW 20 24 11 13 - - 1.8
24/02:40pm 19.0 16.8 15.0 77 2.4 WNW 20 24 11 13 - - 1.8
24/02:30pm 18.9 15.6 14.1 73 2.9 W 24 28 13 15 - - 1.8
24/02:20pm 18.7 16.4 14.6 77 2.5 WNW 20 28 11 15 - - 1.8
24/02:10pm 18.7 15.4 14.0 74 2.8 W 24 30 13 16 - - 1.8
24/02:00pm 18.3 16.9 15.5 84 1.7 WNW 17 20 9 11 - - 1.8
24/01:50pm 18.2 16.8 15.5 84 1.6 NW 17 24 9 13 - - 1.8
24/01:40pm 19.0 17.4 15.0 77 2.4 WNW 17 20 9 11 - - 1.4
24/01:30pm 19.2 16.3 15.2 77 2.4 WNW 24 32 13 17 - - 1.4
24/01:20pm 19.1 15.6 14.6 75 2.7 WNW 26 33 14 18 - - 1.4
24/01:10pm 18.9 16.3 15.0 78 2.4 NW 22 26 12 14 - - 1.4
24/01:00pm 18.6 16.7 15.7 83 1.8 NW 20 22 11 12 - - 1.4
24/12:50pm 17.5 15.7 15.4 87 1.3 NW 19 22 10 12 - - 1.4
24/12:40pm 17.4 15.2 15.0 86 1.4 WNW 20 28 11 15 - - 1.4
24/12:30pm 17.3 15.1 14.8 85 1.5 NW 20 24 11 13 - - 1.4
24/12:20pm 17.5 15.5 15.0 85 1.5 NW 19 24 10 13 - - 1.4
24/12:10pm 17.5 16.0 15.4 87 1.3 NW 17 20 9 11 - - 1.4
24/12:00pm 17.3 15.8 15.2 87 1.3 NW 17 20 9 11 - - 1.4
24/11:50am 17.0 15.5 15.2 89 1.1 NW 17 22 9 12 - - 1.4
24/11:40am 17.2 15.2 14.9 86 1.4 NW 19 22 10 12 - - 1.2
24/11:30am 17.2 14.3 15.0 87 1.3 NW 24 30 13 16 - - 1.2
24/11:20am 17.3 14.3 14.9 86 1.4 NW 24 32 13 17 - - 1.2
24/11:10am 17.2 13.9 15.1 87 1.3 NW 26 32 14 17 - - 1.2
24/11:00am 16.8 13.0 14.7 87 1.3 NNW 28 35 15 19 - - 1.2
24/10:50am 16.7 14.2 15.1 90 1.0 NNW 22 28 12 15 - - 1.2
24/10:40am 16.6 13.7 15.0 90 1.0 NNW 24 30 13 16 - - 1.2
24/10:30am 16.8 14.3 15.2 90 1.0 NNW 22 30 12 16 - - 0.2
24/10:20am 17.1 14.9 15.0 87 1.3 NW 20 24 11 13 - - 0.0
24/10:10am 17.3 15.2 15.1 87 1.3 NW 20 24 11 13 - - 0.0
24/10:00am 16.8 14.6 14.8 88 1.2 NW 20 28 11 15 - - 10.2
24/09:50am 16.7 14.1 14.8 88 1.1 NW 22 30 12 16 - - 10.2
24/09:40am 16.9 14.7 14.9 88 1.2 NW 20 28 11 15 - - 10.2
24/09:30am 16.9 14.7 14.8 87 1.3 NW 20 33 11 18 - - 10.2
24/09:20am 17.0 14.8 14.9 87 1.3 NW 20 24 11 13 - - 10.2
24/09:10am 17.3 16.2 15.3 88 1.2 NW 15 19 8 10 - - 10.2
24/09:00am 17.5 16.7 15.1 86 1.4 NW 13 19 7 10 - - 10.2
24/08:50am 17.6 16.8 15.1 85 1.5 NW 13 19 7 10 - - 10.2
24/08:40am 17.4 16.4 14.7 84 1.6 NW 13 15 7 8 - - 10.2
24/08:30am 17.0 16.4 14.5 85 1.5 NW 11 17 6 9 - - 10.2
24/08:20am 16.3 16.0 14.4 88 1.1 NW 9 13 5 7 - - 10.2
24/08:10am 16.3 16.3 14.1 87 1.3 WNW 7 13 4 7 - - 10.2
24/08:00am 16.0 15.6 14.1 88 1.1 WNW 9 13 5 7 - - 10.2
24/07:50am 16.1 16.1 14.3 89 1.1 WNW 7 9 4 5 - - 10.2
24/07:40am 15.8 15.7 13.9 88 1.1 NNW 7 13 4 7 - - 10.2
24/07:30am 15.9 15.8 13.9 88 1.2 NW 7 9 4 5 - - 10.2
24/07:20am 15.8 15.9 14.0 89 1.1 NW 6 9 3 5 - - 10.2
24/07:10am 15.6 15.4 13.7 88 1.1 WNW 7 11 4 6 - - 10.2
24/07:00am 15.3 14.7 13.6 90 1.0 WNW 9 11 5 6 - - 10.2
24/06:50am 15.0 14.4 13.6 91 0.8 WNW 9 11 5 6 - - 10.2
24/06:40am 14.8 14.2 13.5 92 0.8 WNW 9 17 5 9 - - 10.2
24/06:30am 14.8 14.2 13.5 92 0.8 WNW 9 11 5 6 - - 10.2
24/06:20am 14.9 14.3 13.5 91 0.8 NW 9 13 5 7 - - 10.2
24/06:10am 15.0 13.6 13.4 90 0.9 N 13 15 7 8 - - 10.0
24/06:00am 15.0 14.0 13.5 91 0.9 NNW 11 15 6 8 - - 10.0
24/05:50am 14.9 14.7 13.6 92 0.8 NNW 7 9 4 5 - - 10.0
24/05:40am 14.9 14.3 13.5 91 0.8 NNW 9 11 5 6 - - 10.0
24/05:30am 14.9 14.7 13.6 92 0.8 NW 7 11 4 6 - - 10.0
24/05:20am 14.9 14.7 13.6 92 0.8 NW 7 11 4 6 - - 10.0
24/05:10am 14.9 14.4 13.7 92 0.7 NW 9 13 5 7 - - 9.8
24/05:00am 14.9 13.5 13.5 91 0.8 NNW 13 19 7 10 - - 9.8
24/04:50am 14.7 14.1 13.5 92 0.7 N 9 13 5 7 - - 9.8
24/04:40am 14.7 14.1 13.6 93 0.6 NW 9 11 5 6 - - 9.8
24/04:30am 14.7 14.1 13.6 93 0.6 NW 9 13 5 7 - - 9.8
24/04:20am 14.8 13.8 13.5 92 0.8 NW 11 17 6 9 - - 9.8
24/04:10am 14.7 13.7 13.4 92 0.7 NNW 11 17 6 9 - - 9.8
24/04:00am 14.7 13.7 13.4 92 0.7 NNW 11 13 6 7 - - 9.6
24/03:50am 14.7 13.3 13.3 91 0.8 NNW 13 19 7 10 - - 9.6
24/03:40am 14.8 12.9 13.1 89 1.0 NNW 15 19 8 10 - - 9.6
24/03:30am 14.7 13.2 13.1 90 0.9 NNW 13 15 7 8 - - 9.6
24/03:20am 14.7 13.2 13.1 90 0.9 N 13 17 7 9 - - 9.6
24/03:10am 14.7 13.6 13.2 91 0.9 N 11 15 6 8 - - 9.6
24/03:00am 14.8 13.8 13.3 91 0.9 NNW 11 15 6 8 - - 9.6
24/02:50am 15.1 13.7 13.3 89 1.0 NNW 13 17 7 9 - - 9.4
24/02:40am 15.3 13.1 13.2 87 1.2 N 17 24 9 13 - - 9.2
24/02:30am 15.3 12.5 13.1 87 1.3 NNE 20 22 11 12 - - 9.2
24/02:20am 15.3 12.1 13.2 87 1.2 NNE 22 24 12 13 - - 9.2
24/02:10am 15.4 11.9 13.4 88 1.2 NNE 24 28 13 15 - - 9.2
24/02:00am 15.5 11.7 13.6 88 1.1 NNE 26 30 14 16 - - 9.2
24/01:50am 15.5 13.9 13.8 90 1.0 NNE 15 24 8 13 - - 9.2
24/01:40am 15.4 13.9 14.1 92 0.8 NE 15 22 8 12 - - 9.0
24/01:30am 15.1 14.7 14.2 94 0.5 NNE 9 11 5 6 - - 8.8
24/01:20am 14.9 15.1 14.3 96 0.4 NNE 6 7 3 4 - - 8.6
24/01:10am 15.0 15.3 14.4 96 0.4 NE 6 7 3 4 - - 8.6
24/01:00am 15.0 16.0 14.4 96 0.4 E 2 4 1 2 - - 8.4
24/12:50am 15.0 15.7 14.4 96 0.4 ENE 4 6 2 3 - - 8.2
24/12:40am 15.1 15.4 14.4 96 0.4 N 6 6 3 3 - - 8.2
24/12:30am 15.2 15.3 14.4 95 0.5 W 7 9 4 5 - - 7.6
24/12:20am 15.2 14.1 14.4 95 0.5 W 13 15 7 8 - - 6.6
24/12:10am 15.3 14.7 14.6 96 0.4 WNW 11 13 6 7 - - 5.4
24/12:00am 15.3 15.0 14.5 95 0.5 WNW 9 13 5 7 - - 3.4
 
Date/Time
EDT
Temp
°C
App
Temp
°C
Dew
Point
°C
Rel
Hum
%
Delta-T
°C
Wind Press
QNH
hPa
Press
MSL
hPa
Rain since
9am
mm
Dir  Spd
km/h
Gust
km/h
Spd
kts
Gust
kts
23/11:50pm 15.3 13.9 14.5 95 0.5 WSW 15 24 8 13 - - 2.2
23/11:40pm 15.2 15.0 14.6 96 0.4 WSW 9 15 5 8 - - 2.2
23/11:30pm 15.2 15.9 14.6 96 0.4 SSW 4 6 2 3 - - 2.2
23/11:20pm 15.2 15.9 14.5 96 0.4 SW 4 6 2 3 - - 2.2
23/11:10pm 15.2 15.5 14.5 96 0.4 SSW 6 6 3 3 - - 2.2
23/11:00pm 15.2 15.9 14.4 95 0.5 NNW 4 6 2 3 - - 2.2
23/10:50pm 15.3 15.5 14.2 93 0.6 NE 6 6 3 3 - - 2.2
23/10:40pm 15.1 15.8 14.4 96 0.4 E 4 6 2 3 - - 2.2
23/10:30pm 15.1 15.4 14.4 96 0.4 NNE 6 7 3 4 - - 2.2
23/10:20pm 15.1 15.4 14.4 96 0.4 NNE 6 7 3 4 - - 2.2
23/10:10pm 15.3 16.3 14.4 94 0.5 WNW 2 4 1 2 - - 2.2
23/10:00pm 15.4 16.1 14.4 94 0.6 E 4 6 2 3 - - 2.2
23/09:50pm 15.3 15.5 14.1 92 0.7 SE 6 7 3 4 - - 2.2
23/09:40pm 15.4 15.6 14.3 93 0.6 S 6 7 3 4 - - 2.2
23/09:30pm 15.4 15.6 14.2 92 0.7 NW 6 9 3 5 - - 2.2
23/09:20pm 15.5 13.9 13.9 90 0.9 NNE 15 17 8 9 - - 2.0
23/09:10pm 15.6 14.1 14.2 91 0.8 NE 15 17 8 9 - - 2.0
23/09:00pm 15.6 14.4 14.1 91 0.9 N 13 15 7 8 - - 1.8
23/08:50pm 15.7 13.4 14.1 90 0.9 NW 19 28 10 15 - - 1.6
23/08:40pm 16.3 11.9 14.2 87 1.2 WNW 30 39 16 21 - - 0.2
23/08:30pm 18.0 16.2 13.2 73 2.8 N 15 37 8 20 - - 0.0
23/08:20pm 18.2 17.6 12.2 68 3.4 NNE 7 9 4 5 - - 0.0
23/08:10pm 18.3 17.8 12.0 66 3.6 NNE 6 6 3 3 - - 0.0
23/08:00pm 18.3 17.8 12.1 67 3.5 NNE 6 6 3 3 - - 0.0
23/07:50pm 18.6 18.1 12.2 66 3.7 N 6 6 3 3 - - 0.0
23/07:40pm 19.0 18.4 12.3 65 3.9 NNE 7 9 4 5 - - 0.0
23/07:30pm 19.2 18.1 11.9 62 4.2 NE 9 9 5 5 - - 0.0
23/07:20pm 19.8 18.9 12.5 62 4.2 NNE 9 9 5 5 - - 0.0
23/07:10pm 20.4 19.1 11.3 56 5.2 NNE 9 9 5 5 - - 0.0
23/07:00pm 21.0 20.1 11.3 54 5.5 N 7 9 4 5 - - 0.0
23/06:50pm 21.4 20.1 11.1 52 5.9 N 9 11 5 6 - - 0.0
23/06:40pm 21.4 20.8 12.3 56 5.3 N 7 9 4 5 - - 0.0
23/06:30pm 21.9 21.0 11.3 51 6.1 N 7 9 4 5 - - 0.0
23/06:20pm 22.4 21.0 10.9 48 6.6 N 9 11 5 6 - - 0.0
23/06:10pm 22.6 20.7 10.5 46 6.9 N 11 15 6 8 - - 0.0
23/06:00pm 22.7 20.8 10.6 46 6.9 NNW 11 17 6 9 - - 0.0
23/05:50pm 23.0 20.8 10.8 46 7.0 NNW 13 17 7 9 - - 0.0
23/05:40pm 23.3 21.0 10.4 44 7.3 NNW 13 17 7 9 - - 0.0
23/05:30pm 23.5 20.5 9.4 40 7.9 NNW 15 19 8 10 - - 0.0
23/05:20pm 23.5 20.7 9.9 42 7.7 NNW 15 20 8 11 - - 0.0
23/05:10pm 23.7 20.5 9.8 41 7.8 NNW 17 19 9 10 - - 0.0
23/05:00pm 24.0 20.3 10.0 41 7.9 N 20 26 11 14 - - 0.0
23/04:50pm 24.6 22.8 12.1 45 7.4 NNW 13 17 7 9 - - 0.0
23/04:40pm 24.1 21.7 11.4 45 7.4 NNW 15 19 8 10 - - 0.0
23/04:30pm 24.0 21.4 11.9 46 7.1 NNW 17 20 9 11 - - 0.0
23/04:20pm 24.3 22.0 11.7 45 7.4 NNW 15 22 8 12 - - 0.0
23/04:10pm 24.5 21.8 11.8 45 7.4 NNW 17 20 9 11 - - 0.0
23/04:00pm 24.4 21.1 10.8 42 7.8 N 19 22 10 12 - - 0.0
23/03:50pm 24.2 21.2 12.0 46 7.2 NNW 19 26 10 14 - - 0.0
23/03:40pm 25.4 23.1 11.7 42 8.0 NNW 15 20 8 11 - - 0.0
23/03:30pm 24.0 21.2 13.1 50 6.5 N 20 26 11 14 - - 0.0
23/03:20pm 24.8 21.8 12.0 44 7.5 NNW 19 20 10 11 - - 0.0
23/03:10pm 25.5 22.9 11.9 42 8.0 NNW 17 22 9 12 - - 0.0
23/03:00pm 24.6 21.8 11.5 44 7.6 NNW 17 26 9 14 - - 0.0
23/02:50pm 24.0 20.5 10.8 43 7.6 NNW 20 24 11 13 - - 0.0
23/02:40pm 25.0 21.1 10.9 41 8.2 NNW 22 30 12 16 - - 0.0
23/02:30pm 25.3 23.1 12.0 43 7.8 NNW 15 19 8 10 - - 0.0
23/02:20pm 24.6 21.1 10.9 42 7.9 NNW 20 22 11 12 - - 0.0
23/02:10pm 24.6 20.6 10.6 41 8.0 N 22 28 12 15 - - 0.0
23/02:00pm 24.5 21.8 11.6 44 7.5 N 17 22 9 12 - - 0.0
23/01:50pm 24.2 22.2 12.7 48 6.8 NNW 15 19 8 10 - - 0.0
23/01:40pm 23.4 19.9 12.1 49 6.6 NW 22 28 12 15 - - 0.0
23/01:30pm 23.8 20.5 12.7 49 6.6 NW 22 28 12 15 - - 0.0
23/01:20pm 24.6 21.6 12.4 46 7.2 NW 20 28 11 15 - - 0.0
23/01:10pm 23.9 21.3 13.1 50 6.5 WNW 19 20 10 11 - - 0.0
23/01:00pm 23.7 20.9 13.1 51 6.3 NW 20 28 11 15 - - 0.0
23/12:50pm 23.7 20.4 12.9 50 6.4 NNW 22 24 12 13 - - 0.0
23/12:40pm 23.7 20.5 11.3 45 7.2 NNW 19 26 10 14 - - 0.0
23/12:30pm 23.5 20.0 12.3 49 6.6 N 22 28 12 15 - - 0.0
23/12:20pm 23.7 21.0 12.9 50 6.4 NNW 19 24 10 13 - - 0.0
23/12:10pm 23.7 20.5 12.0 48 6.9 NNW 20 30 11 16 - - 0.0
23/12:00pm 23.6 20.8 13.1 51 6.3 NNW 20 26 11 14 - - 0.0
23/11:50am 23.1 19.9 13.1 53 6.0 NNW 22 24 12 13 - - 0.0
23/11:40am 22.9 20.1 13.3 54 5.7 NW 20 24 11 13 - - 0.0
23/11:30am 22.7 20.0 13.0 54 5.8 NW 19 22 10 12 - - 0.0
23/11:20am 22.4 19.6 12.5 53 5.8 NW 19 26 10 14 - - 0.0
23/11:10am 22.1 19.4 13.6 58 5.1 NNW 20 24 11 13 - - 0.0
23/11:00am 21.9 18.9 12.5 55 5.5 NNW 20 22 11 12 - - 0.0
23/10:50am 21.7 18.6 12.1 54 5.6 NNW 20 26 11 14 - - 0.0
23/10:40am 21.5 18.8 12.9 58 5.1 N 19 26 10 14 - - 0.0
23/10:30am 21.4 19.0 12.7 57 5.1 NNW 17 19 9 10 - - 0.0
23/10:20am 21.0 17.9 12.2 57 5.1 N 20 24 11 13 - - 0.0
23/10:10am 21.1 18.6 12.4 57 5.1 N 17 24 9 13 - - 0.0
23/10:00am 20.9 18.5 12.6 59 4.9 N 17 20 9 11 - - 0.0
23/09:50am 21.4 21.0 13.0 58 5.0 N 7 13 4 7 - - 0.0
23/09:40am 21.2 21.9 14.4 65 4.1 NNW 4 6 2 3 - - 0.0
23/09:30am 20.6 21.0 13.6 64 4.2 E 4 6 2 3 - - 0.0
23/09:20am 19.8 20.3 14.1 69 3.4 SE 4 4 2 2 - - 0.0
23/09:10am 18.4 19.2 13.8 74 2.7 S 2 4 1 2 - - 0.0
23/09:00am 16.7 17.0 13.4 81 1.9 SSW 4 4 2 2 - - 0.0
23/08:50am 16.0 15.9 13.4 84 1.5 SW 6 6 3 3 - - 0.0
23/08:40am 15.7 15.6 13.4 86 1.3 SW 6 7 3 4 - - 0.0
23/08:30am 15.9 16.4 14.0 88 1.1 SSW 4 6 2 3 - - 0.0
23/08:20am 16.3 17.4 14.6 90 1.0 SW 2 4 1 2 - - 0.0
23/08:10am 15.6 16.6 14.3 92 0.8 W 2 4 1 2 - - 0.0
23/08:00am 14.9 15.8 14.0 94 0.5 NW 2 2 1 1 - - 0.0
23/07:50am 14.2 14.9 13.4 95 0.5 N 2 2 1 1 - - 0.0
23/07:40am 13.3 13.7 12.6 95 0.4 NNE 2 4 1 2 - - 0.0
23/07:30am 12.5 12.7 12.0 97 0.3 NNW 2 2 1 1 - - 0.0
23/07:20am 12.0 12.1 11.5 97 0.3 NW 2 2 1 1 - - 0.0
23/07:10am 11.3 11.2 10.9 97 0.2 ENE 2 4 1 2 - - 0.0
23/07:00am 10.6 9.9 10.2 97 0.2 NE 4 6 2 3 - - 0.0
23/06:50am 10.1 9.7 9.7 97 0.2 NE 2 4 1 2 - - 0.0
23/06:40am 9.6 9.1 9.2 97 0.2 NNE 2 4 1 2 - - 0.0
23/06:30am 9.5 8.9 9.1 97 0.2 NNE 2 2 1 1 - - 0.0
23/06:20am 9.3 9.0 8.8 97 0.3 CALM 0 2 0 1 - - 0.0
23/06:10am 9.4 8.8 9.0 97 0.2 NNE 2 2 1 1 - - 0.0
23/06:00am 9.2 8.6 8.8 97 0.2 NE 2 4 1 2 - - 0.0
23/05:50am 9.1 8.4 8.7 97 0.2 NNE 2 4 1 2 - - 0.0
23/05:40am 9.1 8.4 8.6 97 0.3 N 2 2 1 1 - - 0.0
23/05:30am 9.2 8.5 8.7 97 0.3 NW 2 4 1 2 - - 0.0
23/05:20am 9.1 8.4 8.7 97 0.2 WNW 2 4 1 2 - - 0.0
23/05:10am 9.2 8.5 8.7 97 0.3 NE 2 4 1 2 - - 0.0
23/05:00am 9.2 8.2 8.7 97 0.3 E 4 6 2 3 - - 0.0
23/04:50am 9.8 8.6 9.4 97 0.2 E 6 7 3 4 - - 0.0
23/04:40am 9.1 8.0 8.6 97 0.3 ENE 4 6 2 3 - - 0.0
23/04:30am 9.2 8.2 8.7 97 0.3 NE 4 6 2 3 - - 0.0
23/04:20am 9.2 8.2 8.7 97 0.3 E 4 6 2 3 - - 0.0
23/04:10am 9.3 7.9 8.7 96 0.3 NE 6 6 3 3 - - 0.0
23/04:00am 9.3 8.3 8.8 97 0.3 NE 4 6 2 3 - - 0.0
23/03:50am 9.6 9.0 9.0 96 0.3 NE 2 4 1 2 - - 0.0
23/03:40am 9.8 8.9 9.2 96 0.3 ENE 4 4 2 2 - - 0.0
23/03:30am 10.3 9.9 9.8 97 0.3 SE 2 2 1 1 - - 0.0
23/03:20am 10.3 9.9 9.7 96 0.3 WSW 2 4 1 2 - - 0.0
23/03:10am 10.4 10.0 9.8 96 0.3 NW 2 4 1 2 - - 0.0
23/03:00am 10.5 10.1 9.9 96 0.3 WNW 2 4 1 2 - - 0.0
23/02:50am 10.6 10.3 10.0 96 0.3 NW 2 4 1 2 - - 0.0
23/02:40am 10.8 10.5 10.1 95 0.4 NW 2 2 1 1 - - 0.0
23/02:30am 11.1 10.9 10.5 96 0.3 SSW 2 4 1 2 - - 0.0
23/02:20am 11.2 11.0 10.5 95 0.4 ENE 2 4 1 2 - - 0.0
23/02:10am 11.3 11.1 10.4 94 0.5 NW 2 4 1 2 - - 0.0
23/02:00am 11.6 11.5 10.8 95 0.4 NNE 2 2 1 1 - - 0.0
23/01:50am 11.9 11.5 11.0 94 0.5 E 4 7 2 4 - - 0.0
23/01:40am 12.5 11.8 11.3 92 0.7 ESE 6 9 3 5 - - 0.0
23/01:30am 12.9 11.8 11.8 93 0.6 E 9 13 5 7 - - 0.0
23/01:20am 12.8 12.2 11.8 94 0.6 ESE 6 9 3 5 - - 0.0
23/01:10am 12.8 12.5 11.6 92 0.7 E 4 7 2 4 - - 0.0

Other formats

Comma delimited format used in spreadsheet applications
http://www.bom.gov.au/fwo/IDN60801/IDN60801.99764.axf

JavaScript Object Notation format (JSON) in row-major order
http://www.bom.gov.au/fwo/IDN60801/IDN60801.99764.json

Data quality

Most of these data are generated automatically and are frequently updated. Quality checks on data are not normally performed. It is possible for incorrect values to appear. Refer to information at About Latest Weather Observations and please check the disclaimer before using these data.